Time;durP1;ratioP1;P1;durP2;ratioP2;P2;SDS_P1;SDS_P2;PMS_P1;PMS_P2;Temp;Humidity;BMP_temperature;BMP_pressure;BME280_temperature;BME280_humidity;BME280_pressure;Samples;Min_cycle;Max_cycle;Signal;HPM_P1;HPM_P2
2023/10/11 04:00:46;;;;;;;;;;;14.70;99.90;;;;;;6058475;23;20159;31
2023/10/11 04:03:14;;;;;;;;;;;14.80;99.90;;;;;;4955307;28;20286;-66
2023/10/11 04:05:40;;;;;;;;;;;14.80;99.90;;;;;;4954343;28;20415;-65
2023/10/11 04:08:07;;;;;;;;;;;14.90;99.90;;;;;;4956143;29;19975;-66
2023/10/11 04:10:39;;;;;;;;;;;14.90;99.90;;;;;;4956681;28;19917;-66
2023/10/11 04:13:14;;;;;;;;;;;14.80;99.90;;;;;;5009035;22;20012;-67
2023/10/11 04:15:40;;;;;;;;;;;14.80;99.90;;;;;;4995159;28;19914;-66
2023/10/11 04:18:20;;;;;;;;;;;14.60;99.90;;;;;;4995240;28;19910;-66
2023/10/11 04:21:09;;;;;;;;;;;14.60;99.90;;;;;;4995180;28;19914;-65
2023/10/11 04:23:39;;;;;;;;;;;14.70;99.90;;;;;;4983646;28;20337;-66
2023/10/11 04:26:08;;;;;;;;;;;14.60;99.90;;;;;;4979481;28;19993;-66
2023/10/11 04:28:34;;;;;;;;;;;14.70;99.90;;;;;;4979593;28;19910;-66
2023/10/11 04:31:28;;;;;;;;;;;14.70;99.90;;;;;;4974532;28;19920;-67
2023/10/11 04:33:54;;;;;;;;;;;14.80;99.90;;;;;;4956529;28;19949;-66
2023/10/11 04:36:20;;;;;;;;;;;14.80;99.90;;;;;;4956228;28;19957;-66
2023/10/11 04:38:49;;;;;;;;;;;14.80;99.90;;;;;;4954658;29;20280;-67
2023/10/11 04:41:16;;;;;;;;;;;14.80;99.90;;;;;;4956364;28;19910;-67
2023/10/11 04:43:50;;;;;;;;;;;14.80;99.90;;;;;;4954578;28;19986;-67
2023/10/11 04:46:27;;;;;;;;;;;14.80;99.90;;;;;;4973161;28;19957;-67
2023/10/11 04:49:03;;;;;;;;;;;14.70;99.90;;;;;;4975323;28;19918;-67
2023/10/11 04:51:38;;;;;;;;;;;14.60;99.90;;;;;;4974081;28;19961;-68
2023/10/11 04:54:13;;;;;;;;;;;14.60;99.90;;;;;;4974977;28;20317;-67
2023/10/11 04:59:46;;;;;;;;;;;14.60;99.90;;;;;;4975847;28;19914;-67
2023/10/11 05:02:08;;;;;;;;;;;14.70;99.90;;;;;;4974952;28;19932;-67
2023/10/11 05:04:41;;;;;;;;;;;14.70;99.90;;;;;;4974520;28;19956;-67
2023/10/11 05:07:10;;;;;;;;;;;14.80;99.90;;;;;;4975556;28;19914;-66
2023/10/11 05:09:39;;;;;;;;;;;14.80;99.90;;;;;;4973619;28;20321;-66
2023/10/11 05:14:39;;;;;;;;;;;14.80;99.90;;;;;;4974942;28;19927;-66
2023/10/11 05:17:24;;;;;;;;;;;14.80;99.90;;;;;;4974795;28;19914;-66
2023/10/11 05:22:29;;;;;;;;;;;14.80;99.90;;;;;;4975487;28;19910;-66
2023/10/11 05:32:50;;;;;;;;;;;14.70;99.90;;;;;;4955913;28;20400;-66
2023/10/11 05:51:39;;;;;;;;;;;14.10;99.90;;;;;;4955300;29;19917;-65
2023/10/11 05:54:07;;;;;;;;;;;14.00;99.90;;;;;;4967669;28;19993;-65
2023/10/11 05:56:41;;;;;;;;;;;14.00;99.90;;;;;;4974393;28;19914;-65
2023/10/11 05:59:10;;;;;;;;;;;14.00;99.90;;;;;;4973312;28;19914;-66
2023/10/11 06:01:36;;;;;;;;;;;14.00;99.90;;;;;;4973279;28;19910;-65
2023/10/11 06:04:04;;;;;;;;;;;14.00;99.90;;;;;;4974523;28;19919;-66
2023/10/11 06:06:38;;;;;;;;;;;13.90;99.90;;;;;;4974534;28;19910;-66
2023/10/11 06:09:16;;;;;;;;;;;14.00;99.90;;;;;;4973002;28;19910;-66
2023/10/11 06:11:47;;;;;;;;;;;14.00;99.90;;;;;;4974777;28;20376;-65
2023/10/11 06:14:20;;;;;;;;;;;14.00;99.90;;;;;;4973225;28;19997;-67
2023/10/11 06:16:58;;;;;;;;;;;14.10;99.90;;;;;;4974241;28;19914;-66
2023/10/11 06:19:27;;;;;;;;;;;14.20;99.90;;;;;;4974662;28;19940;-66
2023/10/11 06:21:56;;;;;;;;;;;14.20;99.90;;;;;;4974505;28;19910;-66
2023/10/11 06:24:38;;;;;;;;;;;14.30;99.90;;;;;;4957769;28;19920;-67
2023/10/11 06:29:37;;;;;;;;;;;14.30;99.90;;;;;;4956335;28;19910;-65
2023/10/11 06:32:12;;;;;;;;;;;14.20;99.90;;;;;;4958743;28;19918;-66
2023/10/11 06:34:38;;;;;;;;;;;14.20;99.90;;;;;;4958800;28;19918;-67
2023/10/11 06:37:06;;;;;;;;;;;14.10;99.90;;;;;;4989710;28;20024;-66
2023/10/11 06:42:24;;;;;;;;;;;14.20;99.90;;;;;;4958648;28;19910;-65
2023/10/11 06:44:59;;;;;;;;;;;14.20;99.90;;;;;;4959001;28;19910;-65
2023/10/11 06:47:35;;;;;;;;;;;14.40;99.90;;;;;;4958610;28;19911;-66
2023/10/11 06:50:10;;;;;;;;;;;14.40;99.90;;;;;;4989342;28;19910;-65
2023/10/11 06:52:36;;;;;;;;;;;14.50;99.90;;;;;;4958909;28;19915;-65
2023/10/11 06:55:13;;;;;;;;;;;14.50;99.90;;;;;;4977210;28;20004;-64
2023/10/11 06:58:02;;;;;;;;;;;14.50;99.90;;;;;;4977585;28;19920;-64
2023/10/11 07:00:28;;;;;;;;;;;14.50;99.90;;;;;;4977834;28;19941;-65
2023/10/11 07:02:55;;;;;;;;;;;14.60;99.90;;;;;;4977176;28;19947;-64
2023/10/11 07:05:21;;;;;;;;;;;14.60;99.90;;;;;;4977301;28;19910;-64
2023/10/11 07:07:47;;;;;;;;;;;14.60;99.90;;;;;;4977108;28;19918;-64
2023/10/11 07:10:28;;;;;;;;;;;14.70;99.90;;;;;;4976899;28;19910;-64
2023/10/11 07:13:03;;;;;;;;;;;14.70;99.90;;;;;;4977160;28;20377;-65
2023/10/11 07:15:37;;;;;;;;;;;14.80;99.90;;;;;;4977330;28;19910;-65
2023/10/11 07:18:10;;;;;;;;;;;14.90;99.90;;;;;;4977394;28;19910;-65
2023/10/11 07:20:48;;;;;;;;;;;14.90;99.90;;;;;;4977097;28;19914;-65
2023/10/11 07:23:19;;;;;;;;;;;14.90;99.90;;;;;;4977011;28;19916;-66
2023/10/11 07:25:47;;;;;;;;;;;15.00;99.90;;;;;;4977605;28;19910;-65
2023/10/11 07:28:35;;;;;;;;;;;15.00;99.90;;;;;;4976996;28;20009;-64
2023/10/11 07:30:59;;;;;;;;;;;15.00;99.90;;;;;;4976811;28;19970;-64
2023/10/11 07:33:26;;;;;;;;;;;15.10;99.90;;;;;;4979705;28;19916;-65
2023/10/11 07:35:51;;;;;;;;;;;15.20;99.90;;;;;;4983384;28;19917;-64
2023/10/11 07:38:17;;;;;;;;;;;15.30;99.90;;;;;;4978134;28;20012;-64
2023/10/11 07:40:46;;;;;;;;;;;15.30;99.90;;;;;;4976458;28;19910;-64
2023/10/11 07:43:16;;;;;;;;;;;15.40;99.90;;;;;;4976640;28;19997;-64
2023/10/11 07:45:47;;;;;;;;;;;15.50;99.90;;;;;;4976425;28;19910;-63
2023/10/11 07:48:16;;;;;;;;;;;15.50;99.90;;;;;;4976778;28;20481;-65
2023/10/11 07:50:42;;;;;;;;;;;15.50;99.90;;;;;;4976293;28;19910;-64
2023/10/11 07:53:13;;;;;;;;;;;15.60;99.90;;;;;;4976176;28;19910;-64
2023/10/11 07:55:39;;;;;;;;;;;15.60;99.90;;;;;;4975760;28;19914;-64
2023/10/11 07:58:08;;;;;;;;;;;15.60;99.90;;;;;;4976500;28;19910;-64
2023/10/11 08:00:33;;;;;;;;;;;15.60;99.90;;;;;;4976730;28;19910;-63
2023/10/11 08:03:03;;;;;;;;;;;15.70;99.90;;;;;;4975083;28;19916;-63
2023/10/11 08:05:29;;;;;;;;;;;15.90;99.90;;;;;;4976177;28;19936;-67
2023/10/11 08:07:55;;;;;;;;;;;15.80;99.90;;;;;;4976528;28;20308;-64
2023/10/11 08:10:33;;;;;;;;;;;16.00;99.90;;;;;;4975954;28;19910;-65
2023/10/11 08:13:02;;;;;;;;;;;16.20;99.90;;;;;;4974607;28;20376;-64
2023/10/11 08:15:28;;;;;;;;;;;16.10;99.90;;;;;;4976216;28;19914;-65
2023/10/11 08:17:54;;;;;;;;;;;16.10;99.90;;;;;;4976377;28;19917;-65
2023/10/11 08:20:19;;;;;;;;;;;16.20;99.90;;;;;;4976004;28;19985;-65
2023/10/11 08:22:47;;;;;;;;;;;16.20;99.90;;;;;;4975899;28;20428;-65
2023/10/11 08:25:13;;;;;;;;;;;16.40;99.90;;;;;;4975596;28;19945;-64
2023/10/11 08:27:41;;;;;;;;;;;16.40;99.90;;;;;;4975985;28;19914;-65
2023/10/11 08:30:08;;;;;;;;;;;16.60;99.90;;;;;;4976614;28;20019;-65
2023/10/11 08:32:37;;;;;;;;;;;16.50;99.90;;;;;;4976169;28;19950;-65
2023/10/11 08:35:06;;;;;;;;;;;16.60;99.90;;;;;;4975896;28;19977;-64
2023/10/11 08:37:32;;;;;;;;;;;16.80;99.90;;;;;;4975631;28;19915;-64
2023/10/11 08:39:59;;;;;;;;;;;17.00;99.90;;;;;;4974964;28;20223;-65
2023/10/11 08:42:30;;;;;;;;;;;17.20;99.90;;;;;;4975961;28;20000;-65
2023/10/11 08:44:59;;;;;;;;;;;17.20;99.90;;;;;;4976538;28;19980;-65
2023/10/11 08:47:24;;;;;;;;;;;17.30;99.90;;;;;;4974484;28;20444;-65
2023/10/11 08:49:50;;;;;;;;;;;17.30;99.90;;;;;;4976154;28;19960;-65
2023/10/11 08:52:22;;;;;;;;;;;17.40;99.90;;;;;;4976126;28;19910;-66
2023/10/11 08:54:48;;;;;;;;;;;17.50;99.90;;;;;;4975907;28;19915;-64
2023/10/11 08:57:13;;;;;;;;;;;17.60;99.90;;;;;;4976142;28;19941;-64
2023/10/11 08:59:49;;;;;;;;;;;17.80;99.90;;;;;;4975831;28;19910;-64
2023/10/11 09:02:17;;;;;;;;;;;18.10;99.90;;;;;;4975363;28;20391;-64
2023/10/11 09:07:46;;;;;;;;;;;18.90;99.90;;;;;;4975322;28;20328;-64
2023/10/11 09:10:28;;;;;;;;;;;19.00;99.90;;;;;;4975232;28;19910;-65
2023/10/11 09:12:56;;;;;;;;;;;19.00;99.90;;;;;;4974865;28;19981;-64
2023/10/11 09:15:40;;;;;;;;;;;19.30;99.90;;;;;;4975476;28;19948;-64
2023/10/11 09:18:12;;;;;;;;;;;19.30;99.90;;;;;;4975867;28;19914;-65
2023/10/11 09:20:40;;;;;;;;;;;19.40;99.90;;;;;;4976509;28;19910;-64
2023/10/11 09:23:05;;;;;;;;;;;19.60;99.90;;;;;;4977675;28;19942;-64
2023/10/11 09:25:41;;;;;;;;;;;19.70;99.90;;;;;;4976642;28;19918;-66
2023/10/11 09:28:14;;;;;;;;;;;19.90;99.90;;;;;;4975656;28;19910;-64
2023/10/11 09:30:44;;;;;;;;;;;20.20;99.90;;;;;;4975418;28;19917;-65
2023/10/11 09:33:16;;;;;;;;;;;20.60;99.90;;;;;;4974642;28;20333;-64
2023/10/11 09:35:48;;;;;;;;;;;21.10;99.90;;;;;;4973319;28;19916;-65
2023/10/11 09:38:17;;;;;;;;;;;21.60;99.90;;;;;;4974903;28;19914;-64
2023/10/11 09:40:44;;;;;;;;;;;21.70;99.60;;;;;;4974490;28;19910;-65
2023/10/11 09:43:13;;;;;;;;;;;21.60;99.70;;;;;;4974568;28;20377;-66
2023/10/11 09:45:44;;;;;;;;;;;21.60;99.20;;;;;;4974720;28;19914;-65
2023/10/11 09:48:12;;;;;;;;;;;21.70;99.00;;;;;;4974954;28;19947;-65
2023/10/11 09:50:41;;;;;;;;;;;22.00;98.70;;;;;;4974840;28;19982;-64
2023/10/11 09:53:15;;;;;;;;;;;22.50;98.10;;;;;;4974555;28;20357;-65
2023/10/11 09:55:44;;;;;;;;;;;23.60;96.90;;;;;;4974396;28;20258;-65
2023/10/11 09:58:17;;;;;;;;;;;25.10;95.10;;;;;;4974889;28;19921;-66
2023/10/11 10:01:07;;;;;;;;;;;25.90;93.60;;;;;;4974857;28;19917;-65
2023/10/11 10:03:38;;;;;;;;;;;27.80;91.90;;;;;;4975072;28;20288;-65
2023/10/11 10:06:07;;;;;;;;;;;30.10;88.60;;;;;;4977063;28;19910;-66
2023/10/11 10:08:33;;;;;;;;;;;31.40;83.80;;;;;;4977453;28;19910;-66
2023/10/11 10:10:58;;;;;;;;;;;32.50;80.10;;;;;;4978630;28;19962;-66
2023/10/11 10:13:28;;;;;;;;;;;33.10;78.20;;;;;;4979105;28;19918;-65
2023/10/11 10:15:57;;;;;;;;;;;33.20;76.70;;;;;;4978801;28;19918;-65
2023/10/11 10:18:23;;;;;;;;;;;33.90;75.40;;;;;;4978374;28;20302;-65
2023/10/11 10:20:58;;;;;;;;;;;34.20;74.00;;;;;;4978454;28;20389;-65
2023/10/11 10:23:27;;;;;;;;;;;34.40;72.60;;;;;;4977405;28;20001;-66
2023/10/11 10:25:59;;;;;;;;;;;34.40;72.10;;;;;;4978244;28;19961;-65
2023/10/11 10:28:39;;;;;;;;;;;34.70;71.50;;;;;;4978379;28;19980;-65
2023/10/11 10:31:04;;;;;;;;;;;35.10;70.70;;;;;;4978443;28;20010;-66
2023/10/11 10:33:35;;;;;;;;;;;35.40;70.10;;;;;;4977482;28;19953;-65
2023/10/11 10:36:22;;;;;;;;;;;36.00;69.10;;;;;;4979129;28;19918;-65
2023/10/11 10:41:36;;;;;;;;;;;36.50;66.70;;;;;;4983820;28;19981;-65
2023/10/11 10:44:03;;;;;;;;;;;36.40;66.40;;;;;;4984876;28;20337;-65
2023/10/11 10:46:28;;;;;;;;;;;36.20;65.80;;;;;;4980312;28;20030;-65
2023/10/11 10:48:56;;;;;;;;;;;36.50;65.40;;;;;;4978025;28;19910;-65
2023/10/11 10:51:21;;;;;;;;;;;36.40;65.00;;;;;;4977015;28;19911;-65
2023/10/11 10:53:53;;;;;;;;;;;34.90;65.10;;;;;;4977641;28;19917;-64
2023/10/11 10:56:22;;;;;;;;;;;32.60;67.70;;;;;;4978202;28;20312;-64
2023/10/11 10:58:47;;;;;;;;;;;30.70;70.20;;;;;;4977515;28;19910;-64
2023/10/11 11:01:13;;;;;;;;;;;28.90;73.10;;;;;;4977218;28;20004;-65
2023/10/11 11:03:41;;;;;;;;;;;27.70;75.50;;;;;;4977541;28;19940;-65
2023/10/11 11:06:11;;;;;;;;;;;26.80;77.90;;;;;;4977471;28;19910;-64
2023/10/11 11:08:39;;;;;;;;;;;26.20;79.60;;;;;;4977512;28;19960;-67
2023/10/11 11:11:20;;;;;;;;;;;25.80;80.60;;;;;;4977516;28;19945;-64
2023/10/11 11:13:47;;;;;;;;;;;25.50;81.50;;;;;;4976941;28;19934;-64
2023/10/11 11:16:16;;;;;;;;;;;25.20;82.10;;;;;;4976823;28;19914;-64
2023/10/11 11:18:43;;;;;;;;;;;25.10;82.80;;;;;;4977636;28;19933;-63
2023/10/11 11:21:25;;;;;;;;;;;25.00;82.70;;;;;;4976966;28;19953;-63
2023/10/11 11:23:50;;;;;;;;;;;24.90;83.30;;;;;;4976962;28;19985;-63
2023/10/11 11:26:17;;;;;;;;;;;24.70;84.10;;;;;;4976944;28;20446;-64
2023/10/11 11:28:43;;;;;;;;;;;24.70;84.40;;;;;;4977217;28;20361;-64
2023/10/11 11:31:13;;;;;;;;;;;24.70;84.20;;;;;;4978616;28;20001;-64
2023/10/11 11:33:53;;;;;;;;;;;24.80;84.70;;;;;;4978950;28;19921;-65
2023/10/11 11:36:30;;;;;;;;;;;24.70;84.70;;;;;;4979494;28;20082;-65
2023/10/11 11:39:17;;;;;;;;;;;24.70;86.10;;;;;;4977510;28;20358;-64
2023/10/11 11:41:47;;;;;;;;;;;24.70;86.00;;;;;;4977396;28;19918;-65
2023/10/11 11:44:19;;;;;;;;;;;24.60;86.00;;;;;;4976559;28;19916;-63
2023/10/11 11:46:55;;;;;;;;;;;24.60;85.60;;;;;;4977109;28;19917;-63
2023/10/11 11:49:21;;;;;;;;;;;24.60;86.10;;;;;;4977049;28;19910;-64
2023/10/11 11:51:55;;;;;;;;;;;24.60;86.40;;;;;;4976025;28;19914;-64
2023/10/11 11:54:22;;;;;;;;;;;24.50;86.90;;;;;;4976403;28;20384;-64
2023/10/11 11:56:48;;;;;;;;;;;24.60;87.20;;;;;;4976813;28;19946;-62
2023/10/11 11:59:19;;;;;;;;;;;24.60;87.20;;;;;;4976828;28;20313;-62
2023/10/11 12:01:49;;;;;;;;;;;24.60;87.20;;;;;;4976425;28;19965;-64
2023/10/11 12:04:24;;;;;;;;;;;24.60;87.20;;;;;;4976044;28;19911;-64
2023/10/11 12:06:49;;;;;;;;;;;24.70;87.30;;;;;;4976183;28;19920;-63
2023/10/11 12:09:21;;;;;;;;;;;24.80;87.00;;;;;;4976053;28;19961;-63
2023/10/11 12:11:49;;;;;;;;;;;24.80;86.70;;;;;;4974994;28;19918;-64
2023/10/11 12:14:15;;;;;;;;;;;24.90;86.90;;;;;;4975750;28;20269;-64
2023/10/11 12:16:42;;;;;;;;;;;25.00;87.00;;;;;;4975484;28;19937;-65
2023/10/11 12:19:11;;;;;;;;;;;25.00;87.20;;;;;;4975994;28;20045;-65
2023/10/11 12:21:37;;;;;;;;;;;24.90;87.20;;;;;;4974715;28;19910;-65
2023/10/11 12:24:10;;;;;;;;;;;24.90;87.70;;;;;;4978583;28;20305;-64
2023/10/11 12:26:36;;;;;;;;;;;25.00;86.80;;;;;;4977436;28;19910;-64
2023/10/11 12:29:04;;;;;;;;;;;25.00;86.20;;;;;;4976305;28;20417;-65
2023/10/11 12:31:29;;;;;;;;;;;25.10;86.10;;;;;;4978116;28;19939;-65
2023/10/11 12:33:55;;;;;;;;;;;25.10;86.10;;;;;;4977073;28;20429;-68
2023/10/11 12:36:21;;;;;;;;;;;25.10;86.20;;;;;;4975529;28;20400;-67
2023/10/11 12:38:47;;;;;;;;;;;25.10;86.40;;;;;;4974307;28;19945;-66
2023/10/11 12:41:15;;;;;;;;;;;25.10;86.50;;;;;;4975531;28;19978;-66
2023/10/11 12:43:41;;;;;;;;;;;25.20;86.20;;;;;;4975543;28;19911;-67
2023/10/11 12:46:06;;;;;;;;;;;25.20;85.70;;;;;;4975867;28;19989;-67
2023/10/11 12:48:32;;;;;;;;;;;25.30;85.40;;;;;;4976303;28;19910;-67
2023/10/11 12:50:57;;;;;;;;;;;25.30;85.70;;;;;;4976600;28;19964;-66
2023/10/11 12:53:23;;;;;;;;;;;25.30;85.70;;;;;;4975714;28;19911;-67
2023/10/11 12:55:51;;;;;;;;;;;25.30;85.40;;;;;;4975742;28;20048;-66
2023/10/11 12:58:19;;;;;;;;;;;25.30;85.30;;;;;;4975491;28;20377;-65
2023/10/11 13:00:49;;;;;;;;;;;25.40;85.10;;;;;;4976077;28;20032;-65
2023/10/11 13:03:29;;;;;;;;;;;25.50;84.90;;;;;;4974269;28;19910;-65
2023/10/11 13:05:55;;;;;;;;;;;25.60;84.80;;;;;;4975396;28;19910;-65
2023/10/11 13:08:28;;;;;;;;;;;25.60;83.80;;;;;;4975264;28;20394;-65
2023/10/11 13:10:54;;;;;;;;;;;25.60;84.30;;;;;;4974696;28;19965;-65
2023/10/11 13:13:21;;;;;;;;;;;25.60;83.80;;;;;;4975043;28;19918;-65
2023/10/11 13:16:26;;;;;;;;;;;25.50;84.40;;;;;;4975305;28;19914;-66
2023/10/11 13:18:39;;;;;;;;;;;25.50;84.50;;;;;;4974909;28;19918;-64
2023/10/11 13:21:05;;;;;;;;;;;25.40;84.80;;;;;;4975308;28;19960;-65
2023/10/11 13:23:31;;;;;;;;;;;25.50;84.90;;;;;;4975168;28;20428;-66
2023/10/11 13:25:59;;;;;;;;;;;25.50;84.80;;;;;;4974908;28;19910;-65
2023/10/11 13:28:26;;;;;;;;;;;25.50;84.90;;;;;;4975107;28;19911;-65
2023/10/11 13:30:53;;;;;;;;;;;25.40;84.60;;;;;;4973966;28;19910;-64
2023/10/11 13:33:18;;;;;;;;;;;25.60;84.40;;;;;;4973705;28;19973;-65
2023/10/11 13:35:44;;;;;;;;;;;25.60;84.50;;;;;;4975626;28;19974;-65
2023/10/11 13:38:16;;;;;;;;;;;25.60;84.00;;;;;;4977167;28;19914;-65
2023/10/11 13:40:45;;;;;;;;;;;25.60;84.30;;;;;;4981414;28;19917;-65
2023/10/11 13:43:12;;;;;;;;;;;25.50;84.70;;;;;;4984845;28;19910;-65
2023/10/11 13:45:40;;;;;;;;;;;25.70;84.40;;;;;;4991137;28;19910;-65
2023/10/11 13:48:11;;;;;;;;;;;26.00;83.80;;;;;;4989193;28;20425;-65
2023/10/11 13:50:40;;;;;;;;;;;26.20;83.10;;;;;;4981865;28;20006;-65
2023/10/11 13:53:06;;;;;;;;;;;26.10;83.20;;;;;;4980215;28;19918;-65
2023/10/11 13:55:39;;;;;;;;;;;25.80;83.60;;;;;;4981077;28;20297;-65
2023/10/11 13:58:06;;;;;;;;;;;25.60;83.90;;;;;;4981042;28;19914;-65
2023/10/11 14:05:45;;;;;;;;;;;25.50;84.10;;;;;;4981583;28;19954;-64
2023/10/11 14:08:27;;;;;;;;;;;25.50;84.10;;;;;;4981413;28;19964;-64
2023/10/11 14:10:53;;;;;;;;;;;25.40;84.10;;;;;;4981110;28;20285;-64
2023/10/11 14:13:24;;;;;;;;;;;25.40;84.30;;;;;;4980616;28;19918;-67
2023/10/11 14:15:50;;;;;;;;;;;25.30;84.50;;;;;;4982791;28;19945;-66
2023/10/11 14:18:19;;;;;;;;;;;25.40;84.60;;;;;;4982963;28;19916;-65
2023/10/11 14:20:49;;;;;;;;;;;25.40;84.70;;;;;;4985135;28;20009;-66
2023/10/11 14:23:15;;;;;;;;;;;25.40;85.00;;;;;;4986558;28;19914;-65
2023/10/11 14:25:44;;;;;;;;;;;25.30;84.70;;;;;;4984852;28;19910;-67
2023/10/11 14:28:14;;;;;;;;;;;25.20;84.80;;;;;;4981981;28;20052;-69
2023/10/11 14:30:40;;;;;;;;;;;25.10;85.10;;;;;;4981296;28;19911;-64
2023/10/11 14:33:08;;;;;;;;;;;25.00;86.00;;;;;;4979504;28;19911;-66
2023/10/11 14:35:37;;;;;;;;;;;24.90;85.90;;;;;;4980977;28;19914;-66
2023/10/11 14:38:03;;;;;;;;;;;24.90;86.10;;;;;;4981073;28;20016;-67
2023/10/11 14:40:29;;;;;;;;;;;25.00;85.80;;;;;;4980764;28;19914;-66
2023/10/11 14:42:54;;;;;;;;;;;24.90;86.10;;;;;;4979631;28;20394;-63
2023/10/11 14:45:23;;;;;;;;;;;24.90;85.80;;;;;;4980220;28;19910;-62
2023/10/11 14:47:50;;;;;;;;;;;24.80;85.50;;;;;;4980682;28;19995;-61
2023/10/11 14:50:16;;;;;;;;;;;24.90;85.60;;;;;;4978528;28;20262;-63
2023/10/11 14:52:43;;;;;;;;;;;24.80;85.70;;;;;;4977732;28;19917;-63
2023/10/11 14:55:16;;;;;;;;;;;24.70;86.40;;;;;;4977865;28;19985;-63
2023/10/11 14:57:49;;;;;;;;;;;24.70;85.90;;;;;;4977750;28;19914;-63
2023/10/11 15:00:16;;;;;;;;;;;24.60;86.30;;;;;;4978237;28;19910;-63
2023/10/11 15:02:43;;;;;;;;;;;24.60;86.00;;;;;;4978118;28;19914;-63
2023/10/11 15:05:08;;;;;;;;;;;24.50;86.10;;;;;;4979042;28;19910;-63
2023/10/11 15:07:34;;;;;;;;;;;24.60;85.90;;;;;;4978587;28;19910;-63
2023/10/11 15:09:59;;;;;;;;;;;24.60;86.00;;;;;;4979027;28;19917;-61
2023/10/11 15:12:25;;;;;;;;;;;24.50;86.10;;;;;;4976477;28;19965;-63
2023/10/11 15:14:50;;;;;;;;;;;24.40;86.10;;;;;;4977331;28;19910;-63
2023/10/11 15:17:18;;;;;;;;;;;24.50;86.10;;;;;;4977304;28;20361;-65
2023/10/11 15:19:45;;;;;;;;;;;24.40;86.00;;;;;;4977783;28;19917;-66
2023/10/11 15:22:12;;;;;;;;;;;24.30;86.80;;;;;;4977011;28;20021;-66
2023/10/11 15:24:39;;;;;;;;;;;24.40;86.70;;;;;;4977037;28;19910;-66
2023/10/11 15:27:05;;;;;;;;;;;24.20;87.10;;;;;;4977535;28;20353;-66
2023/10/11 15:29:30;;;;;;;;;;;24.10;87.60;;;;;;4976927;28;19914;-67
2023/10/11 15:31:56;;;;;;;;;;;24.10;87.60;;;;;;4977346;28;19957;-66
2023/10/11 15:34:21;;;;;;;;;;;24.20;87.20;;;;;;4976910;28;20285;-66
2023/10/11 15:36:47;;;;;;;;;;;24.20;87.40;;;;;;4976889;28;20008;-67
2023/10/11 15:39:12;;;;;;;;;;;24.10;87.40;;;;;;4976980;28;20004;-68
2023/10/11 15:41:38;;;;;;;;;;;23.90;87.80;;;;;;4976601;28;19910;-67
2023/10/11 15:44:03;;;;;;;;;;;23.90;88.00;;;;;;4976987;28;20369;-66
2023/10/11 15:46:29;;;;;;;;;;;23.80;88.50;;;;;;4977399;28;19914;-64
2023/10/11 15:48:55;;;;;;;;;;;23.80;88.80;;;;;;4977556;28;19957;-64
2023/10/11 15:51:21;;;;;;;;;;;23.80;88.60;;;;;;4978667;28;19910;-64
2023/10/11 15:53:46;;;;;;;;;;;23.60;88.90;;;;;;4977048;28;19910;-65
2023/10/11 15:56:13;;;;;;;;;;;23.70;88.90;;;;;;4977577;28;19914;-65
2023/10/11 15:58:39;;;;;;;;;;;23.60;89.10;;;;;;4977256;28;19946;-64
2023/10/11 16:01:06;;;;;;;;;;;23.60;89.30;;;;;;4975886;28;19910;-66
2023/10/11 16:03:50;;;;;;;;;;;23.50;89.60;;;;;;4975065;28;19911;-67
2023/10/11 16:06:16;;;;;;;;;;;23.50;89.80;;;;;;4976136;28;19910;-66
2023/10/11 16:08:42;;;;;;;;;;;23.30;90.00;;;;;;4976898;28;19917;-65
2023/10/11 16:11:15;;;;;;;;;;;23.20;90.20;;;;;;4976551;28;20258;-65
2023/10/11 16:13:47;;;;;;;;;;;23.10;90.40;;;;;;4974953;28;19918;-65
2023/10/11 16:16:16;;;;;;;;;;;23.00;90.60;;;;;;4975981;28;20005;-66
2023/10/11 16:18:45;;;;;;;;;;;22.90;90.90;;;;;;4977402;28;19910;-66
2023/10/11 16:21:16;;;;;;;;;;;22.80;91.20;;;;;;4977631;28;19946;-66
2023/10/11 16:23:43;;;;;;;;;;;22.80;91.40;;;;;;4976540;28;20403;-65
2023/10/11 16:26:10;;;;;;;;;;;22.70;91.60;;;;;;4974638;28;20308;-65
2023/10/11 16:28:36;;;;;;;;;;;22.50;91.90;;;;;;4976077;28;19910;-66
2023/10/11 16:31:05;;;;;;;;;;;22.50;92.20;;;;;;4976175;28;19910;-66
2023/10/11 16:33:31;;;;;;;;;;;22.40;92.40;;;;;;4975502;28;19911;-66
2023/10/11 16:36:04;;;;;;;;;;;22.30;92.60;;;;;;4976208;28;19910;-66
2023/10/11 16:38:32;;;;;;;;;;;22.20;92.70;;;;;;4975793;28;19961;-65
2023/10/11 16:41:00;;;;;;;;;;;22.10;93.00;;;;;;4975799;28;19950;-65
2023/10/11 16:43:25;;;;;;;;;;;22.00;93.20;;;;;;4976228;28;19957;-66
2023/10/11 16:45:51;;;;;;;;;;;21.90;93.50;;;;;;4977105;28;19911;-66
2023/10/11 16:48:18;;;;;;;;;;;21.80;93.60;;;;;;4978744;28;19914;-66
2023/10/11 16:50:45;;;;;;;;;;;21.80;93.80;;;;;;4977446;28;20005;-64
2023/10/11 16:53:12;;;;;;;;;;;21.70;94.00;;;;;;4975790;28;19914;-66
2023/10/11 16:55:38;;;;;;;;;;;21.60;94.20;;;;;;4978542;28;20056;-67
2023/10/11 16:58:04;;;;;;;;;;;21.50;94.40;;;;;;4974182;28;20000;-66
2023/10/11 17:00:33;;;;;;;;;;;21.50;94.50;;;;;;4975564;28;19949;-66
2023/10/11 17:03:00;;;;;;;;;;;21.40;94.70;;;;;;4975349;28;19910;-68
2023/10/11 17:05:27;;;;;;;;;;;21.30;94.80;;;;;;4975668;28;19910;-67
2023/10/11 17:07:52;;;;;;;;;;;21.30;95.10;;;;;;4975438;28;20280;-66
2023/10/11 17:10:18;;;;;;;;;;;21.30;95.20;;;;;;4975050;28;20005;-67
2023/10/11 17:12:44;;;;;;;;;;;21.30;95.30;;;;;;4974617;28;19958;-67
2023/10/11 17:15:10;;;;;;;;;;;21.20;95.40;;;;;;4973704;28;19916;-66
2023/10/11 17:17:39;;;;;;;;;;;21.20;95.60;;;;;;4974905;28;19964;-66
2023/10/11 17:20:15;;;;;;;;;;;21.20;95.50;;;;;;4974936;28;19964;-66
2023/10/11 17:22:41;;;;;;;;;;;21.20;95.60;;;;;;4975570;28;19914;-67
2023/10/11 17:25:07;;;;;;;;;;;21.10;95.70;;;;;;4974799;28;20016;-68
2023/10/11 17:27:34;;;;;;;;;;;21.10;95.90;;;;;;4978794;28;19956;-67
2023/10/11 17:30:00;;;;;;;;;;;21.10;96.00;;;;;;4975769;28;20288;-65
2023/10/11 17:32:27;;;;;;;;;;;21.00;96.40;;;;;;4974931;28;20004;-65
2023/10/11 17:34:53;;;;;;;;;;;21.00;96.20;;;;;;4974518;28;19933;-65
2023/10/11 17:37:19;;;;;;;;;;;21.00;96.60;;;;;;4974622;28;20369;-66
2023/10/11 17:39:45;;;;;;;;;;;21.00;96.40;;;;;;4974644;28;20000;-65
2023/10/11 17:42:12;;;;;;;;;;;21.00;96.50;;;;;;4966252;28;20021;-64
2023/10/11 17:44:39;;;;;;;;;;;21.00;96.50;;;;;;4967505;28;19965;-66
2023/10/11 17:47:05;;;;;;;;;;;21.00;96.60;;;;;;4969253;28;20403;-65
2023/10/11 17:49:31;;;;;;;;;;;21.00;96.60;;;;;;4962586;28;20001;-66
2023/10/11 17:51:56;;;;;;;;;;;20.90;96.70;;;;;;4964418;28;20005;-65
2023/10/11 17:54:22;;;;;;;;;;;20.90;96.70;;;;;;4975835;28;19998;-65
2023/10/11 17:56:47;;;;;;;;;;;20.90;96.80;;;;;;4970242;28;19950;-65
2023/10/11 17:59:13;;;;;;;;;;;20.90;97.00;;;;;;4975652;28;19921;-65
2023/10/11 18:01:41;;;;;;;;;;;20.80;97.00;;;;;;4976598;28;20149;-65
2023/10/11 18:04:07;;;;;;;;;;;20.80;97.10;;;;;;4975992;28;20440;-65
2023/10/11 18:06:32;;;;;;;;;;;20.70;97.40;;;;;;4973312;28;19917;-65
2023/10/11 18:09:00;;;;;;;;;;;20.70;97.50;;;;;;4976013;28;19914;-65
2023/10/11 18:11:26;;;;;;;;;;;20.70;97.50;;;;;;4974883;28;19965;-64
2023/10/11 18:13:54;;;;;;;;;;;20.70;97.60;;;;;;4974640;28;19922;-65
2023/10/11 18:16:20;;;;;;;;;;;20.60;97.60;;;;;;4975671;28;19918;-66
2023/10/11 18:18:45;;;;;;;;;;;20.60;97.70;;;;;;4975595;28;19978;-65
2023/10/11 18:21:10;;;;;;;;;;;20.50;97.80;;;;;;4973648;28;19922;-65
2023/10/11 18:23:36;;;;;;;;;;;20.50;97.90;;;;;;4974509;28;19933;-65
2023/10/11 18:26:01;;;;;;;;;;;20.40;98.00;;;;;;4974878;28;19910;-65
2023/10/11 18:28:27;;;;;;;;;;;20.40;98.10;;;;;;4975679;28;20369;-65
2023/10/11 18:30:53;;;;;;;;;;;20.40;98.20;;;;;;4978892;28;19925;-67
2023/10/11 18:33:20;;;;;;;;;;;20.30;98.30;;;;;;4979603;28;20060;-64
2023/10/11 18:35:46;;;;;;;;;;;20.30;98.80;;;;;;4979372;28;19910;-66
2023/10/11 18:38:11;;;;;;;;;;;20.20;98.80;;;;;;4979249;28;19921;-65
2023/10/11 18:40:37;;;;;;;;;;;20.10;98.90;;;;;;4977215;28;19965;-66
2023/10/11 18:43:03;;;;;;;;;;;20.00;99.00;;;;;;4970841;28;19941;-65
2023/10/11 18:45:30;;;;;;;;;;;20.00;99.50;;;;;;4976542;28;19914;-66
2023/10/11 18:47:56;;;;;;;;;;;19.90;99.90;;;;;;4984835;28;20001;-65
2023/10/11 18:50:23;;;;;;;;;;;20.00;99.90;;;;;;4981211;28;19961;-65
2023/10/11 18:52:49;;;;;;;;;;;19.90;99.90;;;;;;4969329;28;19962;-66
2023/10/11 18:55:16;;;;;;;;;;;19.90;99.90;;;;;;4960722;29;19972;-65
2023/10/11 18:57:41;;;;;;;;;;;19.80;99.90;;;;;;4978141;28;20384;-66
2023/10/11 19:00:11;;;;;;;;;;;19.70;99.90;;;;;;4978346;28;19910;-65
2023/10/11 19:02:41;;;;;;;;;;;19.70;99.90;;;;;;4979066;28;20037;-65
2023/10/11 19:05:07;;;;;;;;;;;19.60;99.90;;;;;;4978639;28;19956;-65
2023/10/11 19:07:35;;;;;;;;;;;19.50;99.90;;;;;;4977394;28;19914;-66
2023/10/11 19:10:04;;;;;;;;;;;19.40;99.90;;;;;;4979120;28;19910;-66
2023/10/11 19:12:31;;;;;;;;;;;19.40;99.90;;;;;;4979108;28;19961;-66
2023/10/11 19:14:57;;;;;;;;;;;19.30;99.90;;;;;;4979015;28;20412;-65